Time;durP1;ratioP1;P1;durP2;ratioP2;P2;SDS_P1;SDS_P2;PMS_P1;PMS_P2;Temp;Humidity;BMP_temperature;BMP_pressure;BME280_temperature;BME280_humidity;BME280_pressure;Samples;Min_cycle;Max_cycle;Signal;HPM_P1;HPM_P2
2021/10/31 00:00:34;;;;;;;18.57;9.10;;;10.70;99.90;;;;;;5033613;28;20460;-55
2021/10/31 00:03:01;;;;;;;15.57;10.37;;;10.70;99.90;;;;;;5033693;28;20538;-55
2021/10/31 00:05:28;;;;;;;17.00;9.83;;;10.70;99.90;;;;;;5025938;28;20456;-55
2021/10/31 00:07:55;;;;;;;14.63;8.80;;;10.80;99.90;;;;;;5033243;28;20538;-55
2021/10/31 00:10:22;;;;;;;14.77;9.57;;;10.80;99.90;;;;;;5033273;28;20453;-55
2021/10/31 00:12:50;;;;;;;14.97;9.13;;;10.90;99.90;;;;;;5033107;28;20518;-55
2021/10/31 00:15:18;;;;;;;15.10;8.87;;;10.90;99.90;;;;;;5032388;28;20452;-55
2021/10/31 00:17:45;;;;;;;11.70;8.20;;;10.90;99.90;;;;;;5033775;28;20449;-54
2021/10/31 00:20:12;;;;;;;10.80;7.60;;;11.00;99.90;;;;;;5033344;28;20521;-55
2021/10/31 00:22:40;;;;;;;11.67;7.67;;;11.10;99.90;;;;;;5033042;28;20530;-54
2021/10/31 00:25:07;;;;;;;12.10;7.97;;;11.10;99.90;;;;;;5030916;28;20459;-55
2021/10/31 00:27:34;;;;;;;14.23;8.20;;;11.10;99.90;;;;;;5032461;28;20542;-55
2021/10/31 00:30:01;;;;;;;14.23;7.57;;;11.20;99.90;;;;;;5032745;28;20452;-54
2021/10/31 00:32:29;;;;;;;11.67;7.90;;;11.30;99.90;;;;;;5033270;28;20480;-56
2021/10/31 00:34:56;;;;;;;15.67;8.40;;;11.30;99.90;;;;;;5033047;28;20460;-55
2021/10/31 00:37:23;;;;;;;12.50;8.00;;;11.20;99.90;;;;;;5032750;28;20507;-55
2021/10/31 00:39:51;;;;;;;13.67;8.93;;;11.00;99.90;;;;;;5032448;28;20967;-54
2021/10/31 00:42:18;;;;;;;12.87;7.80;;;11.00;99.90;;;;;;5032518;28;20468;-55
2021/10/31 00:44:45;;;;;;;14.50;8.70;;;11.10;99.90;;;;;;5032318;28;20456;-55
2021/10/31 00:47:12;;;;;;;14.17;8.60;;;11.10;99.90;;;;;;5032586;28;20901;-55
2021/10/31 00:49:40;;;;;;;13.63;7.80;;;11.20;99.90;;;;;;5032703;28;21004;-55
2021/10/31 00:52:10;;;;;;;13.23;8.23;;;11.20;99.90;;;;;;5032252;28;20472;-55
2021/10/31 00:54:38;;;;;;;12.33;7.83;;;9.80;99.90;;;;;;5032876;28;20452;-55
2021/10/31 00:57:05;;;;;;;11.60;7.50;;;11.10;99.90;;;;;;5031845;28;20453;-55
2021/10/31 00:59:32;;;;;;;11.80;8.20;;;11.20;99.90;;;;;;5032572;28;20506;-55
2021/10/31 01:02:03;;;;;;;12.73;8.80;;;11.10;99.90;;;;;;5032328;28;20527;-55
2021/10/31 01:04:30;;;;;;;17.57;10.03;;;11.10;99.90;;;;;;5031926;28;20951;-55
2021/10/31 01:07:25;;;;;;;11.90;7.60;;;10.90;99.90;;;;;;5032217;28;20510;-55
2021/10/31 01:10:03;;;;;;;16.17;8.70;;;10.90;99.90;;;;;;5032372;28;20544;-54
2021/10/31 01:12:46;;;;;;;12.57;8.37;;;10.90;99.90;;;;;;5031582;28;20503;-55
2021/10/31 01:15:25;;;;;;;15.07;9.27;;;11.00;99.90;;;;;;5032172;28;20502;-55
2021/10/31 01:18:24;;;;;;;15.10;8.97;;;10.90;99.90;;;;;;5032189;28;20506;-54
2021/10/31 01:21:07;;;;;;;16.10;9.60;;;10.80;99.90;;;;;;5025183;28;20507;-55
2021/10/31 01:24:00;;;;;;;18.33;10.20;;;10.80;99.90;;;;;;5032355;28;20452;-55
2021/10/31 01:26:41;;;;;;;16.70;10.10;;;10.70;99.90;;;;;;5030093;28;20453;-55
2021/10/31 01:29:26;;;;;;;17.67;11.13;;;10.70;99.90;;;;;;5025758;28;20502;-55
2021/10/31 01:32:06;;;;;;;19.90;11.70;;;10.60;99.90;;;;;;5031505;28;21012;-54
2021/10/31 01:34:45;;;;;;;19.00;11.43;;;10.50;99.90;;;;;;5030386;28;20502;-55
2021/10/31 01:37:21;;;;;;;24.90;12.40;;;10.50;99.90;;;;;;5032295;28;20531;-54
2021/10/31 01:39:57;;;;;;;21.87;12.40;;;10.40;99.90;;;;;;5031666;28;20814;-55
2021/10/31 01:42:27;;;;;;;20.10;12.97;;;10.20;99.90;;;;;;5031483;28;20475;-55
2021/10/31 01:45:00;;;;;;;22.20;13.20;;;10.30;99.90;;;;;;5031656;28;20448;-55
2021/10/31 01:47:43;;;;;;;19.83;12.03;;;10.20;99.90;;;;;;5031758;28;20476;-54
2021/10/31 01:50:14;;;;;;;23.80;13.00;;;10.10;99.90;;;;;;5031388;28;20459;-55
2021/10/31 01:52:47;;;;;;;23.47;13.17;;;10.00;99.90;;;;;;5031886;28;20997;-55
2021/10/31 01:55:22;;;;;;;24.00;13.80;;;10.00;99.90;;;;;;5031237;28;21819;-55
2021/10/31 01:57:55;;;;;;;22.03;12.73;;;10.00;99.90;;;;;;5031471;28;20930;-54
2021/10/31 02:00:24;;;;;;;20.73;12.67;;;10.20;99.90;;;;;;5028853;28;20460;-55
2021/10/31 02:02:52;;;;;;;23.47;13.53;;;10.10;99.90;;;;;;5070848;22;20585;-50
2021/10/31 02:05:22;;;;;;;20.57;13.20;;;10.10;99.90;;;;;;5071118;28;20459;-50
2021/10/31 02:07:52;;;;;;;21.23;12.87;;;10.10;99.90;;;;;;5051450;28;21054;-50
2021/10/31 02:10:22;;;;;;;18.70;12.60;;;10.10;99.90;;;;;;5051604;28;20964;-50
2021/10/31 02:12:51;;;;;;;20.93;12.90;;;10.10;99.90;;;;;;5063694;28;20481;-50
2021/10/31 02:15:20;;;;;;;23.10;12.83;;;10.10;99.90;;;;;;5070670;28;20957;-52
2021/10/31 02:17:51;;;;;;;21.40;13.43;;;10.00;99.90;;;;;;5071413;28;20438;-50
2021/10/31 02:20:19;;;;;;;23.07;13.00;;;10.00;99.90;;;;;;5067133;28;20455;-51
2021/10/31 02:22:52;;;;;;;21.60;12.73;;;10.00;99.90;;;;;;5051380;28;20585;-50
2021/10/31 02:25:19;;;;;;;20.87;12.80;;;10.10;99.90;;;;;;5059167;28;20451;-50
2021/10/31 02:27:46;;;;;;;21.03;12.67;;;10.00;99.90;;;;;;5060985;28;20483;-51
2021/10/31 02:30:14;;;;;;;18.20;11.50;;;10.00;99.90;;;;;;5051463;28;20455;-50
2021/10/31 02:32:42;;;;;;;22.13;13.17;;;10.00;99.90;;;;;;5057813;28;20464;-50
2021/10/31 02:35:11;;;;;;;22.67;13.17;;;10.00;99.90;;;;;;5059682;28;20443;-51
2021/10/31 02:37:41;;;;;;;19.77;12.80;;;9.90;99.90;;;;;;5056010;28;20954;-51
2021/10/31 02:40:12;;;;;;;18.93;11.73;;;9.60;99.90;;;;;;5068873;28;20454;-52
2021/10/31 02:42:40;;;;;;;19.57;11.47;;;9.90;99.90;;;;;;5068386;28;21062;-50
2021/10/31 02:45:08;;;;;;;21.83;13.33;;;9.90;99.90;;;;;;5069079;28;20458;-51
2021/10/31 02:47:40;;;;;;;22.93;13.90;;;9.90;99.90;;;;;;5075093;28;20496;-50
2021/10/31 02:50:10;;;;;;;24.43;13.73;;;9.50;99.90;;;;;;5065317;28;20460;-52
2021/10/31 02:53:03;;;;;;;23.53;14.00;;;9.50;99.90;;;;;;5059519;28;21055;-50
2021/10/31 02:55:42;;;;;;;20.80;12.33;;;9.60;99.90;;;;;;5054662;28;20457;-50
2021/10/31 02:58:15;;;;;;;19.60;12.47;;;9.70;99.90;;;;;;5055395;28;20440;-51
2021/10/31 03:00:42;;;;;;;22.30;13.00;;;9.60;99.90;;;;;;5062218;28;20512;-50
2021/10/31 03:03:12;;;;;;;21.63;12.60;;;9.50;99.90;;;;;;5069285;28;20478;-51
2021/10/31 03:05:39;;;;;;;19.57;12.00;;;9.40;99.90;;;;;;5066601;28;20454;-50
2021/10/31 03:08:07;;;;;;;21.07;11.97;;;9.50;99.90;;;;;;5060882;28;21053;-50
2021/10/31 03:10:36;;;;;;;17.80;12.07;;;9.50;99.90;;;;;;5064999;28;20447;-50
2021/10/31 03:13:03;;;;;;;21.37;11.60;;;9.50;99.90;;;;;;5061380;28;20544;-50
2021/10/31 03:15:29;;;;;;;22.57;13.13;;;9.50;99.90;;;;;;5074429;28;20446;-50
2021/10/31 03:17:56;;;;;;;20.27;13.20;;;9.50;99.90;;;;;;5074198;28;20450;-50
2021/10/31 03:20:23;;;;;;;24.00;13.27;;;9.50;99.90;;;;;;5058179;28;20459;-51
2021/10/31 03:22:50;;;;;;;24.13;14.50;;;9.40;99.90;;;;;;5065162;28;20474;-51
2021/10/31 03:25:17;;;;;;;24.40;13.50;;;9.50;99.90;;;;;;5055871;28;20451;-51
2021/10/31 03:27:45;;;;;;;20.93;12.00;;;9.50;99.90;;;;;;5066055;28;20450;-51
2021/10/31 03:30:12;;;;;;;17.80;11.20;;;9.50;99.90;;;;;;5069522;28;20451;-50
2021/10/31 03:32:39;;;;;;;24.07;12.00;;;9.50;99.90;;;;;;5067836;28;20475;-51
2021/10/31 03:35:07;;;;;;;21.13;12.87;;;9.50;99.90;;;;;;5069070;28;20454;-50
2021/10/31 03:37:34;;;;;;;19.17;11.50;;;9.40;99.90;;;;;;5074139;28;20869;-51
2021/10/31 03:40:01;;;;;;;21.03;12.50;;;9.30;99.90;;;;;;5072210;28;20451;-50
2021/10/31 03:42:28;;;;;;;20.30;12.10;;;9.30;99.90;;;;;;5054240;28;20478;-51
2021/10/31 03:44:58;;;;;;;17.53;10.57;;;9.20;99.90;;;;;;5057285;28;20512;-50
2021/10/31 03:47:27;;;;;;;17.97;9.93;;;9.10;99.90;;;;;;5074239;28;20446;-50
2021/10/31 03:49:54;;;;;;;13.67;9.10;;;9.10;99.90;;;;;;5073683;28;20588;-51
2021/10/31 03:52:21;;;;;;;17.80;9.07;;;8.90;99.90;;;;;;5055293;28;20476;-50
2021/10/31 03:54:48;;;;;;;15.90;8.90;;;9.00;99.90;;;;;;5053766;28;20614;-50
2021/10/31 03:57:16;;;;;;;11.80;8.30;;;9.00;99.90;;;;;;5053994;28;20497;-52
2021/10/31 03:59:43;;;;;;;11.47;6.27;;;9.00;99.90;;;;;;5055735;28;20442;-50
2021/10/31 04:02:12;;;;;;;7.67;4.97;;;9.20;99.90;;;;;;5064494;28;20481;-51
2021/10/31 04:04:39;;;;;;;7.00;5.00;;;9.20;99.90;;;;;;5073549;28;20522;-51
2021/10/31 04:07:09;;;;;;;7.43;4.90;;;9.20;99.90;;;;;;5073531;28;20449;-50
2021/10/31 04:09:36;;;;;;;6.30;4.90;;;9.30;99.90;;;;;;5073552;28;20479;-51
2021/10/31 04:12:04;;;;;;;8.67;5.10;;;9.30;99.90;;;;;;5073090;28;20447;-50
2021/10/31 04:14:31;;;;;;;10.90;5.57;;;9.30;99.90;;;;;;5073612;28;20495;-50
2021/10/31 04:16:58;;;;;;;6.10;4.77;;;9.30;99.90;;;;;;5069852;28;20453;-52
2021/10/31 04:19:27;;;;;;;6.47;4.70;;;9.30;99.90;;;;;;5071761;28;20451;-51
2021/10/31 04:21:54;;;;;;;7.10;4.70;;;9.20;99.90;;;;;;5057203;28;20937;-50
2021/10/31 04:24:22;;;;;;;7.07;4.60;;;9.20;99.90;;;;;;5073359;28;20451;-51
2021/10/31 04:26:50;;;;;;;8.80;4.70;;;9.20;99.90;;;;;;5072585;28;20454;-50
2021/10/31 04:29:17;;;;;;;8.83;5.50;;;9.30;99.90;;;;;;5053260;28;21139;-50
2021/10/31 04:31:44;;;;;;;11.10;5.60;;;9.30;99.90;;;;;;5054088;28;20517;-50
2021/10/31 04:34:11;;;;;;;8.80;5.83;;;9.20;99.90;;;;;;5055048;28;20464;-51
2021/10/31 04:36:39;;;;;;;6.30;4.53;;;9.20;99.90;;;;;;5053460;28;20887;-50
2021/10/31 04:39:06;;;;;;;6.87;5.10;;;9.20;99.90;;;;;;5053254;28;20435;-51
2021/10/31 04:41:33;;;;;;;7.00;5.00;;;9.10;99.90;;;;;;5070315;28;20956;-51
2021/10/31 04:44:00;;;;;;;9.63;5.40;;;9.00;99.90;;;;;;5073023;28;20466;-50
2021/10/31 04:46:27;;;;;;;7.13;5.10;;;9.00;99.90;;;;;;5072694;28;20455;-51
2021/10/31 04:48:55;;;;;;;7.00;5.10;;;9.10;99.90;;;;;;5066811;28;21062;-51
2021/10/31 04:51:22;;;;;;;7.63;5.43;;;9.00;99.90;;;;;;5053179;28;20513;-50
2021/10/31 04:53:50;;;;;;;10.10;6.23;;;9.10;99.90;;;;;;5055920;28;20471;-49
2021/10/31 04:56:22;;;;;;;9.17;5.30;;;9.00;99.90;;;;;;5052636;28;20447;-49
2021/10/31 04:58:49;;;;;;;7.53;5.57;;;9.00;99.90;;;;;;5052868;28;20457;-49
2021/10/31 05:01:16;;;;;;;8.90;6.20;;;8.90;99.90;;;;;;5068409;28;20461;-49
2021/10/31 05:03:46;;;;;;;9.60;5.67;;;8.80;99.90;;;;;;5063441;28;20852;-49
2021/10/31 05:06:14;;;;;;;9.40;5.93;;;8.80;99.90;;;;;;5054282;28;21018;-50
2021/10/31 05:08:41;;;;;;;9.50;6.17;;;8.80;99.90;;;;;;5072407;28;20492;-50
2021/10/31 05:11:09;;;;;;;7.60;5.77;;;8.80;99.90;;;;;;5063829;28;20573;-50
2021/10/31 05:13:36;;;;;;;7.53;5.80;;;8.70;99.90;;;;;;5053240;28;20471;-50
2021/10/31 05:16:04;;;;;;;10.17;7.10;;;8.60;99.90;;;;;;5062813;28;20479;-49
2021/10/31 05:18:31;;;;;;;11.03;7.40;;;8.60;99.90;;;;;;5072263;28;20501;-50
2021/10/31 05:20:58;;;;;;;11.20;7.23;;;8.30;99.90;;;;;;5071100;28;20455;-49
2021/10/31 05:23:25;;;;;;;11.57;7.63;;;8.30;99.90;;;;;;5072337;28;20520;-50
2021/10/31 05:25:52;;;;;;;11.90;7.57;;;8.40;99.90;;;;;;5072466;28;20457;-50
2021/10/31 05:28:21;;;;;;;17.47;9.70;;;8.40;99.90;;;;;;5072137;28;21014;-50
2021/10/31 05:30:48;;;;;;;28.53;16.20;;;8.40;99.90;;;;;;5062706;28;20444;-49
2021/10/31 05:33:15;;;;;;;29.40;15.67;;;8.40;99.90;;;;;;5060733;28;20463;-49
2021/10/31 05:35:42;;;;;;;29.10;16.60;;;8.30;99.90;;;;;;5051967;28;21034;-49
2021/10/31 05:38:11;;;;;;;19.83;10.63;;;8.20;99.90;;;;;;5063406;28;20443;-49
2021/10/31 05:40:38;;;;;;;18.97;10.10;;;8.20;99.90;;;;;;5069846;28;20497;-52
2021/10/31 05:43:05;;;;;;;13.13;8.80;;;8.10;99.90;;;;;;5057585;28;20474;-50
2021/10/31 05:45:33;;;;;;;14.77;8.43;;;8.00;99.90;;;;;;5066913;28;20451;-50
2021/10/31 05:48:00;;;;;;;10.03;7.00;;;8.10;99.90;;;;;;5057473;28;21016;-50
2021/10/31 05:50:27;;;;;;;11.23;7.77;;;8.10;99.90;;;;;;5053231;28;20678;-50
2021/10/31 05:52:54;;;;;;;12.10;6.80;;;8.00;99.90;;;;;;5061817;28;20459;-52
2021/10/31 05:55:21;;;;;;;9.57;6.60;;;8.10;99.90;;;;;;5058605;28;20549;-50
2021/10/31 05:57:49;;;;;;;9.40;6.40;;;8.10;99.90;;;;;;5059560;28;20458;-51
2021/10/31 06:00:17;;;;;;;7.30;5.50;;;8.10;99.90;;;;;;5055057;28;20460;-49
2021/10/31 06:02:46;;;;;;;8.40;5.50;;;8.10;99.90;;;;;;5057117;28;20476;-51
2021/10/31 06:05:15;;;;;;;7.60;4.77;;;8.10;99.90;;;;;;5060430;28;20497;-50
2021/10/31 06:07:42;;;;;;;8.93;5.03;;;8.20;99.90;;;;;;5055732;28;20872;-51
2021/10/31 06:10:09;;;;;;;6.50;4.80;;;7.90;99.90;;;;;;5058707;28;20482;-51
2021/10/31 06:12:36;;;;;;;7.60;4.70;;;8.10;99.90;;;;;;5058279;28;20518;-51
2021/10/31 06:15:04;;;;;;;8.47;5.97;;;8.10;99.90;;;;;;5068244;28;20456;-51
2021/10/31 06:17:33;;;;;;;10.97;6.90;;;8.00;99.90;;;;;;5051359;28;20451;-51
2021/10/31 06:20:02;;;;;;;10.93;6.50;;;8.00;99.90;;;;;;5051131;28;20835;-50
2021/10/31 06:22:29;;;;;;;8.57;5.50;;;8.00;99.90;;;;;;5051591;28;20479;-50
2021/10/31 06:24:56;;;;;;;10.00;6.70;;;8.10;99.90;;;;;;5065481;28;20516;-50
2021/10/31 06:27:23;;;;;;;9.27;6.47;;;8.20;99.90;;;;;;5054242;28;20444;-52
2021/10/31 06:29:50;;;;;;;10.53;6.47;;;8.30;99.90;;;;;;5054746;28;20614;-50
2021/10/31 06:32:17;;;;;;;12.40;6.07;;;8.30;99.90;;;;;;5057510;28;20526;-52
2021/10/31 06:34:44;;;;;;;11.20;6.00;;;8.40;99.90;;;;;;5054818;28;20466;-52
2021/10/31 06:37:12;;;;;;;9.27;5.40;;;8.40;99.90;;;;;;5066828;28;20456;-52
2021/10/31 06:39:39;;;;;;;9.60;5.90;;;8.40;99.90;;;;;;5066427;28;20447;-51
2021/10/31 06:42:06;;;;;;;7.70;5.00;;;8.20;99.90;;;;;;5067603;28;20487;-51
2021/10/31 06:44:33;;;;;;;5.30;4.23;;;8.60;99.90;;;;;;5068156;28;20519;-51
2021/10/31 06:47:02;;;;;;;7.43;4.50;;;8.70;99.90;;;;;;5059912;28;20510;-50
2021/10/31 06:49:29;;;;;;;8.33;5.03;;;8.90;99.90;;;;;;5066316;28;20505;-51
2021/10/31 06:51:56;;;;;;;6.37;4.30;;;9.10;99.90;;;;;;5056597;28;20492;-50
2021/10/31 06:54:25;;;;;;;7.07;5.10;;;9.00;99.90;;;;;;5059682;28;20463;-51
2021/10/31 06:56:51;;;;;;;6.50;5.10;;;9.10;99.90;;;;;;5060480;28;20505;-51
2021/10/31 06:59:18;;;;;;;6.17;4.90;;;9.10;99.90;;;;;;5061984;28;20448;-51
2021/10/31 07:01:45;;;;;;;5.77;4.63;;;9.20;99.90;;;;;;5060563;28;20452;-52
2021/10/31 07:04:12;;;;;;;7.30;4.97;;;9.10;99.90;;;;;;5055880;28;20520;-51
2021/10/31 07:06:40;;;;;;;8.17;4.20;;;9.30;99.90;;;;;;5051117;28;20455;-51
2021/10/31 07:09:07;;;;;;;5.73;4.37;;;9.50;99.90;;;;;;5052672;28;20482;-51
2021/10/31 07:11:37;;;;;;;5.60;4.37;;;9.60;99.90;;;;;;5057672;28;20522;-50
2021/10/31 07:14:05;;;;;;;4.40;3.50;;;9.70;99.90;;;;;;5054060;28;21004;-51
2021/10/31 07:16:32;;;;;;;4.53;3.87;;;9.80;99.90;;;;;;5054330;28;20495;-51
2021/10/31 07:19:00;;;;;;;4.37;3.13;;;10.10;99.90;;;;;;5052504;28;20472;-52
2021/10/31 07:21:27;;;;;;;4.30;2.80;;;10.20;99.90;;;;;;5050920;28;20451;-50
2021/10/31 07:23:54;;;;;;;3.90;3.33;;;10.20;99.90;;;;;;5051114;28;20467;-51
2021/10/31 07:26:21;;;;;;;3.90;2.77;;;10.20;99.90;;;;;;5062786;28;20503;-51
2021/10/31 07:28:49;;;;;;;3.70;2.87;;;10.40;99.90;;;;;;5071057;28;20497;-52
2021/10/31 07:31:20;;;;;;;3.53;3.20;;;11.70;99.90;;;;;;5065278;28;20500;-51
2021/10/31 07:33:47;;;;;;;3.63;3.23;;;10.90;99.90;;;;;;5054737;28;20475;-50
2021/10/31 07:36:14;;;;;;;4.20;3.47;;;11.20;99.90;;;;;;5069191;28;21022;-51
2021/10/31 07:38:42;;;;;;;4.33;3.53;;;11.30;99.90;;;;;;5065176;28;20505;-50
2021/10/31 07:41:09;;;;;;;4.13;3.50;;;11.50;99.90;;;;;;5053134;28;20443;-50
2021/10/31 07:43:36;;;;;;;6.47;3.93;;;11.90;99.90;;;;;;5057523;28;20467;-51
2021/10/31 07:46:05;;;;;;;4.93;4.17;;;12.20;99.90;;;;;;5073321;28;20447;-50
2021/10/31 07:48:32;;;;;;;5.40;3.90;;;12.30;99.90;;;;;;5067895;28;20470;-49
2021/10/31 07:51:00;;;;;;;5.37;3.83;;;12.50;99.90;;;;;;5070720;28;20547;-50
2021/10/31 07:53:27;;;;;;;5.20;4.00;;;12.80;99.90;;;;;;5073424;28;20470;-50
2021/10/31 07:55:54;;;;;;;5.43;3.60;;;12.90;99.90;;;;;;5073782;28;20451;-51
2021/10/31 07:58:23;;;;;;;4.77;3.80;;;12.90;99.90;;;;;;5073501;28;20455;-51
2021/10/31 08:00:51;;;;;;;5.33;4.50;;;12.30;99.90;;;;;;5073521;28;20447;-52
2021/10/31 08:03:19;;;;;;;6.40;4.40;;;12.40;99.90;;;;;;5097373;22;20511;-55
2021/10/31 08:05:48;;;;;;;6.93;4.73;;;12.50;99.90;;;;;;5085270;28;20952;-55
2021/10/31 08:08:16;;;;;;;6.77;5.17;;;12.60;99.90;;;;;;5074185;28;20970;-55
2021/10/31 08:10:45;;;;;;;6.60;4.50;;;12.50;99.90;;;;;;5073628;28;20490;-55
2021/10/31 08:13:20;;;;;;;6.47;4.67;;;12.60;99.90;;;;;;5074150;28;20471;-55
2021/10/31 08:15:47;;;;;;;7.00;4.90;;;12.60;99.90;;;;;;5080065;28;20502;-54
2021/10/31 08:18:14;;;;;;;6.53;4.97;;;12.50;99.90;;;;;;5093202;28;20449;-55
2021/10/31 08:20:42;;;;;;;7.20;5.43;;;12.40;99.90;;;;;;5093607;28;20876;-56
2021/10/31 08:23:10;;;;;;;8.63;5.43;;;12.30;99.90;;;;;;5093283;28;21085;-55
2021/10/31 08:25:37;;;;;;;10.10;5.90;;;12.20;99.90;;;;;;5092140;28;20476;-55
2021/10/31 08:28:08;;;;;;;7.20;6.10;;;12.60;99.90;;;;;;5074151;28;20493;-54
2021/10/31 08:30:35;;;;;;;8.87;5.93;;;12.80;99.90;;;;;;5076951;28;20482;-55
2021/10/31 08:33:07;;;;;;;8.13;5.97;;;12.80;99.90;;;;;;5095234;28;20995;-55
2021/10/31 08:35:35;;;;;;;5.70;4.90;;;12.90;99.90;;;;;;5094688;28;20448;-55
2021/10/31 08:38:04;;;;;;;6.97;4.87;;;13.20;99.90;;;;;;5094215;28;20454;-55
2021/10/31 08:40:31;;;;;;;6.93;5.03;;;13.40;99.90;;;;;;5092814;28;20533;-55
2021/10/31 08:42:58;;;;;;;7.27;5.13;;;13.60;99.90;;;;;;5091666;28;21049;-55
2021/10/31 08:45:25;;;;;;;7.53;5.20;;;13.70;99.90;;;;;;5092854;28;20952;-55
2021/10/31 08:47:52;;;;;;;7.43;4.90;;;14.30;99.90;;;;;;5052947;28;20509;-55
2021/10/31 08:50:19;;;;;;;7.20;4.80;;;15.00;99.90;;;;;;5055862;28;20486;-55
2021/10/31 08:52:46;;;;;;;9.60;5.17;;;15.90;99.90;;;;;;5087596;28;20999;-55
2021/10/31 08:55:14;;;;;;;6.27;5.10;;;16.20;99.90;;;;;;5072544;28;20455;-55
2021/10/31 08:57:41;;;;;;;6.70;3.77;;;16.60;99.90;;;;;;5072659;28;20451;-56
2021/10/31 09:00:09;;;;;;;4.93;4.37;;;17.10;99.90;;;;;;5081877;28;20457;-55
2021/10/31 09:02:37;;;;;;;7.07;4.77;;;17.30;99.90;;;;;;5070771;28;21085;-56
2021/10/31 09:05:05;;;;;;;3.87;3.53;;;17.60;99.90;;;;;;5071250;28;20492;-55
2021/10/31 09:07:32;;;;;;;6.73;4.90;;;17.50;99.90;;;;;;5072884;28;20446;-55
2021/10/31 09:09:59;;;;;;;7.93;4.30;;;17.60;99.90;;;;;;5072815;28;20478;-56
2021/10/31 09:12:28;;;;;;;4.83;3.60;;;17.20;99.90;;;;;;5071990;28;20455;-56
2021/10/31 09:14:56;;;;;;;4.67;4.20;;;17.20;99.90;;;;;;5087958;28;20450;-55
2021/10/31 09:17:23;;;;;;;5.10;4.13;;;17.80;99.90;;;;;;5092662;28;20450;-55
2021/10/31 09:19:50;;;;;;;6.40;4.83;;;18.20;99.90;;;;;;5092723;28;20446;-55
2021/10/31 09:22:17;;;;;;;5.57;4.53;;;17.70;99.90;;;;;;5092309;28;21026;-56
2021/10/31 09:24:44;;;;;;;6.83;4.53;;;17.70;99.90;;;;;;5087635;28;20859;-56
2021/10/31 09:27:11;;;;;;;7.83;4.60;;;17.30;99.90;;;;;;5072324;28;20451;-55
2021/10/31 09:29:40;;;;;;;5.87;4.73;;;17.90;99.90;;;;;;5089718;28;20449;-56
2021/10/31 09:32:07;;;;;;;6.00;4.67;;;18.20;99.90;;;;;;5092074;28;20450;-56
2021/10/31 09:34:34;;;;;;;4.80;4.10;;;18.70;99.90;;;;;;5092467;28;20465;-56
2021/10/31 09:37:03;;;;;;;5.90;4.60;;;18.60;99.90;;;;;;5092288;28;20962;-56
2021/10/31 09:39:30;;;;;;;6.30;4.90;;;18.30;99.90;;;;;;5078850;28;20478;-56
2021/10/31 09:41:57;;;;;;;5.90;4.73;;;19.00;99.90;;;;;;5077523;28;20861;-56
2021/10/31 09:44:28;;;;;;;6.13;4.90;;;19.20;99.90;;;;;;5092117;28;20526;-56
2021/10/31 09:46:57;;;;;;;7.20;5.80;;;19.00;99.90;;;;;;5092195;28;20530;-56
2021/10/31 09:49:24;;;;;;;6.37;5.40;;;18.70;99.90;;;;;;5092386;28;20441;-55
2021/10/31 09:51:53;;;;;;;6.63;5.50;;;18.60;99.90;;;;;;5090019;28;20968;-56
2021/10/31 09:54:21;;;;;;;9.17;6.80;;;18.70;99.90;;;;;;5051717;28;20472;-56
2021/10/31 09:56:48;;;;;;;6.70;5.70;;;18.90;99.90;;;;;;5082842;28;20511;-55
2021/10/31 09:59:18;;;;;;;7.67;5.70;;;19.50;99.90;;;;;;5086005;28;20443;-56
2021/10/31 10:01:57;;;;;;;7.03;6.27;;;19.60;99.90;;;;;;5071850;28;20451;-56
2021/10/31 10:04:28;;;;;;;7.77;6.27;;;19.20;99.90;;;;;;5071648;28;20478;-56
2021/10/31 10:06:56;;;;;;;7.40;6.40;;;19.20;99.90;;;;;;5071590;28;20450;-56
2021/10/31 10:09:24;;;;;;;9.03;6.90;;;19.40;99.90;;;;;;5071783;28;20447;-56
2021/10/31 10:11:51;;;;;;;8.17;6.53;;;19.30;99.90;;;;;;5074241;28;20547;-56
2021/10/31 10:14:23;;;;;;;10.03;7.83;;;19.40;99.90;;;;;;5070682;28;20904;-55
2021/10/31 10:16:56;;;;;;;8.47;7.40;;;19.30;99.90;;;;;;5071667;28;20447;-56
2021/10/31 10:19:27;;;;;;;10.03;7.90;;;19.50;99.90;;;;;;5071581;28;20954;-55
2021/10/31 10:22:00;;;;;;;12.07;8.83;;;18.80;99.90;;;;;;5071310;28;20584;-56
2021/10/31 10:24:29;;;;;;;11.27;7.93;;;18.80;99.90;;;;;;5079234;28;20470;-56
2021/10/31 10:26:58;;;;;;;10.20;8.10;;;18.80;99.90;;;;;;5091731;28;20453;-56
2021/10/31 10:29:27;;;;;;;13.93;7.90;;;18.60;99.90;;;;;;5091593;28;20449;-55
2021/10/31 10:31:56;;;;;;;12.73;9.10;;;18.70;99.90;;;;;;5070737;28;20478;-55
2021/10/31 10:34:45;;;;;;;12.63;9.70;;;18.80;99.90;;;;;;5051311;28;20528;-55
2021/10/31 10:37:14;;;;;;;10.83;8.40;;;18.60;99.90;;;;;;5060783;28;20470;-55
2021/10/31 10:39:43;;;;;;;10.13;8.80;;;18.20;99.90;;;;;;5087766;28;20503;-55
2021/10/31 10:42:18;;;;;;;12.97;9.90;;;18.20;99.90;;;;;;5091338;28;20701;-56
2021/10/31 10:44:45;;;;;;;13.00;10.03;;;18.40;99.90;;;;;;5089416;28;20445;-55
2021/10/31 10:47:18;;;;;;;13.73;9.70;;;18.30;99.90;;;;;;5070812;28;20450;-56
2021/10/31 10:49:47;;;;;;;15.43;10.00;;;17.80;99.90;;;;;;5071300;28;20485;-55
2021/10/31 10:52:26;;;;;;;11.13;9.38;;;17.50;99.90;;;;;;5066126;28;20495;-55
2021/10/31 10:55:00;;;;;;;14.30;9.50;;;17.50;99.90;;;;;;5069629;28;20273;-54
2021/10/31 10:57:29;;;;;;;13.03;9.33;;;17.40;99.90;;;;;;5070979;28;20447;-55
2021/10/31 10:59:58;;;;;;;12.50;9.50;;;17.60;99.90;;;;;;5073203;28;20576;-55
2021/10/31 11:02:28;;;;;;;10.77;8.63;;;16.90;99.90;;;;;;5074387;28;20485;-55
2021/10/31 11:05:00;;;;;;;11.50;9.20;;;16.90;99.90;;;;;;5074197;28;20998;-55
2021/10/31 11:07:32;;;;;;;14.40;9.20;;;16.90;99.90;;;;;;5086865;28;20951;-55
2021/10/31 11:10:00;;;;;;;13.40;9.77;;;16.80;99.90;;;;;;5094949;28;20502;-55
2021/10/31 11:12:30;;;;;;;11.50;8.50;;;16.70;99.90;;;;;;5079575;28;20482;-55
2021/10/31 11:15:00;;;;;;;12.37;8.53;;;16.70;99.90;;;;;;5074636;28;20447;-55
2021/10/31 11:17:27;;;;;;;11.03;8.60;;;16.80;99.90;;;;;;5074955;28;20496;-55
2021/10/31 11:19:57;;;;;;;10.93;8.73;;;16.90;99.90;;;;;;5074393;28;20499;-55
2021/10/31 11:22:26;;;;;;;11.43;8.83;;;17.10;99.90;;;;;;5092457;28;20438;-55
2021/10/31 11:24:54;;;;;;;10.70;8.37;;;17.20;99.90;;;;;;5094771;28;20459;-55
2021/10/31 11:27:23;;;;;;;11.67;8.73;;;17.40;99.90;;;;;;5094705;28;20518;-55
2021/10/31 11:29:51;;;;;;;13.07;8.60;;;17.20;99.90;;;;;;5094620;28;20446;-55
2021/10/31 11:32:20;;;;;;;9.80;7.73;;;17.20;99.90;;;;;;5094656;28;20485;-55
2021/10/31 11:34:49;;;;;;;11.07;8.57;;;17.20;99.90;;;;;;5094594;28;20442;-56
2021/10/31 11:37:21;;;;;;;11.10;8.90;;;17.00;99.90;;;;;;5094622;28;20865;-55
2021/10/31 11:39:50;;;;;;;13.23;8.00;;;17.00;99.90;;;;;;5094632;28;20446;-55
2021/10/31 11:42:18;;;;;;;12.07;8.50;;;17.20;99.90;;;;;;5079756;28;20802;-55
2021/10/31 11:45:03;;;;;;;11.80;8.90;;;17.20;99.90;;;;;;5074372;28;20821;-56
2021/10/31 11:47:31;;;;;;;10.80;8.50;;;17.30;99.90;;;;;;5074128;28;20454;-55
2021/10/31 11:50:11;;;;;;;12.67;9.33;;;17.10;99.90;;;;;;5073137;28;20512;-56
2021/10/31 11:52:55;;;;;;;10.60;8.47;;;17.20;99.90;;;;;;5073396;28;20532;-55
2021/10/31 11:55:39;;;;;;;14.40;10.30;;;17.10;99.90;;;;;;5074341;28;20474;-55
2021/10/31 11:58:55;;;;;;;12.83;9.50;;;16.70;99.90;;;;;;5073235;28;20533;-55
2021/10/31 12:01:35;;;;;;;14.27;10.00;;;16.50;99.90;;;;;;5073464;28;20445;-55
2021/10/31 12:04:03;;;;;;;12.97;9.07;;;16.70;99.90;;;;;;5085811;28;21058;-56
2021/10/31 12:06:45;;;;;;;13.10;9.93;;;16.70;99.90;;;;;;5090151;28;20446;-55
2021/10/31 12:09:25;;;;;;;13.30;9.90;;;16.80;99.90;;;;;;5073449;28;20560;-55
2021/10/31 12:12:21;;;;;;;14.50;9.90;;;16.90;99.90;;;;;;5073057;28;20540;-55
2021/10/31 12:14:58;;;;;;;12.27;9.50;;;17.00;99.90;;;;;;5073072;28;20478;-55
2021/10/31 12:17:46;;;;;;;13.00;9.57;;;16.90;99.90;;;;;;5079947;28;20442;-55
2021/10/31 12:20:13;;;;;;;12.13;9.13;;;17.00;99.90;;;;;;5093728;28;20453;-55
2021/10/31 12:22:40;;;;;;;12.13;9.40;;;17.30;99.90;;;;;;5075594;28;20984;-55
2021/10/31 12:25:13;;;;;;;13.20;10.30;;;17.30;99.90;;;;;;5073568;28;20451;-55
2021/10/31 12:27:45;;;;;;;14.30;9.80;;;17.00;99.90;;;;;;5073439;28;20534;-55
2021/10/31 12:30:41;;;;;;;13.13;9.87;;;17.00;99.90;;;;;;5073240;28;21066;-56
2021/10/31 12:33:11;;;;;;;13.90;10.33;;;17.20;99.90;;;;;;5093183;28;20474;-55
2021/10/31 12:35:40;;;;;;;15.00;10.83;;;17.20;99.90;;;;;;5093529;28;20999;-56
2021/10/31 12:38:33;;;;;;;17.10;10.90;;;17.10;99.90;;;;;;5093460;28;20450;-55
2021/10/31 12:41:21;;;;;;;13.93;9.83;;;17.30;99.90;;;;;;5093504;28;20492;-55
2021/10/31 12:43:51;;;;;;;16.23;10.83;;;17.30;99.90;;;;;;5093225;28;20522;-55
2021/10/31 12:46:21;;;;;;;13.63;11.00;;;17.10;99.90;;;;;;5079401;28;20451;-55
2021/10/31 12:48:50;;;;;;;14.63;10.60;;;16.90;99.90;;;;;;5061804;28;20470;-55
2021/10/31 12:51:23;;;;;;;16.33;10.67;;;17.00;99.90;;;;;;5072205;28;20532;-55
2021/10/31 12:53:52;;;;;;;13.83;10.70;;;16.90;99.90;;;;;;5061780;28;20470;-55
2021/10/31 12:56:19;;;;;;;16.23;11.93;;;16.90;99.90;;;;;;5073084;28;20450;-55